createdAt,value
2022-08-03T00:02:16.774Z,49.06
2022-08-03T00:04:43.992Z,48.79
2022-08-03T00:07:11.067Z,48.78
2022-08-03T00:09:37.852Z,48.36
2022-08-03T00:12:07.651Z,47.90
2022-08-03T00:14:34.668Z,47.63
2022-08-03T00:17:01.647Z,47.56
2022-08-03T00:19:28.635Z,47.95
2022-08-03T00:21:55.397Z,48.16
2022-08-03T00:24:22.348Z,48.30
2022-08-03T00:26:49.095Z,48.49
2022-08-03T00:29:20.532Z,48.28
2022-08-03T00:31:52.799Z,48.14
2022-08-03T00:34:34.590Z,48.46
2022-08-03T00:37:13.276Z,48.58
2022-08-03T00:39:40.966Z,48.41
2022-08-03T00:42:07.861Z,48.32
2022-08-03T00:44:43.217Z,48.32
2022-08-03T00:47:10.981Z,48.45
2022-08-03T00:49:39.907Z,48.47
2022-08-03T00:52:11.673Z,48.27
2022-08-03T00:54:39.092Z,48.19
2022-08-03T00:57:06.658Z,48.19
2022-08-03T00:59:33.735Z,48.70
2022-08-03T01:02:00.606Z,48.99
2022-08-03T01:04:28.177Z,49.20
2022-08-03T01:07:17.608Z,49.46
2022-08-03T01:10:12.385Z,49.59
2022-08-03T01:12:48.989Z,49.36
2022-08-03T01:15:46.303Z,49.27
2022-08-03T01:18:22.462Z,49.52
2022-08-03T01:20:55.965Z,49.69
2022-08-03T01:23:55.604Z,49.29
2022-08-03T01:26:25.457Z,49.20
2022-08-03T01:29:21.432Z,49.00
2022-08-03T01:33:02.686Z,49.14
2022-08-03T01:35:02.551Z,48.98
2022-08-03T01:37:39.891Z,49.01
2022-08-03T01:40:09.708Z,49.10
2022-08-03T01:42:40.137Z,48.86
2022-08-03T01:45:10.886Z,48.91
2022-08-03T01:47:39.422Z,49.02
2022-08-03T01:50:09.003Z,49.09
2022-08-03T01:52:40.528Z,49.18
2022-08-03T01:55:11.798Z,49.10
2022-08-03T01:58:04.694Z,49.12
2022-08-03T02:00:28.512Z,49.27
2022-08-03T02:02:56.774Z,49.43
2022-08-03T02:05:24.890Z,49.88
2022-08-03T02:07:52.640Z,49.90
2022-08-03T02:10:34.819Z,49.71
2022-08-03T02:13:04.167Z,49.92
2022-08-03T02:15:34.108Z,49.72
2022-08-03T02:18:05.298Z,49.77
2022-08-03T02:20:36.453Z,49.82
2022-08-03T02:23:03.676Z,49.74
2022-08-03T02:25:32.340Z,49.80
2022-08-03T02:28:06.347Z,49.82
2022-08-03T02:30:39.271Z,49.76
2022-08-03T02:33:10.288Z,49.68
2022-08-03T02:35:38.008Z,49.49
2022-08-03T02:38:07.815Z,49.54
2022-08-03T02:40:36.447Z,49.58
2022-08-03T02:43:08.435Z,49.38
2022-08-03T02:45:42.545Z,49.38
2022-08-03T02:48:16.042Z,49.40
2022-08-03T02:50:45.235Z,49.19
2022-08-03T02:53:14.236Z,49.38
2022-08-03T02:55:42.959Z,49.44
2022-08-03T02:58:13.860Z,49.43
2022-08-03T03:00:44.304Z,49.47
2022-08-03T03:03:12.324Z,49.41
2022-08-03T03:05:55.377Z,49.51
2022-08-03T03:08:28.202Z,49.44
2022-08-03T03:10:59.984Z,49.45
2022-08-03T03:13:29.043Z,49.49
2022-08-03T03:15:59.722Z,49.82
2022-08-03T03:18:29.201Z,49.29
2022-08-03T03:20:58.130Z,49.51
2022-08-03T03:23:27.026Z,49.46
2022-08-03T03:25:56.266Z,49.66
2022-08-03T03:28:25.116Z,49.28
2022-08-03T03:30:53.442Z,49.23
2022-08-03T03:33:21.979Z,48.79
2022-08-03T03:35:49.747Z,48.69
2022-08-03T03:38:16.613Z,48.35
2022-08-03T03:40:44.138Z,48.37
2022-08-03T03:43:12.284Z,48.10
2022-08-03T03:45:42.536Z,48.13
2022-08-03T03:48:09.359Z,48.18
2022-08-03T03:50:37.566Z,48.27
2022-08-03T03:53:05.148Z,48.31
2022-08-03T03:55:59.086Z,48.18
2022-08-03T03:58:27.249Z,48.16
2022-08-03T04:00:54.213Z,48.11
2022-08-03T04:03:21.253Z,48.10
2022-08-03T04:06:06.504Z,47.76
2022-08-03T04:08:52.108Z,47.81
2022-08-03T04:11:42.314Z,47.78
2022-08-03T04:14:16.981Z,47.57
2022-08-03T04:16:49.279Z,47.49
2022-08-03T04:19:23.580Z,47.31
2022-08-03T04:21:53.213Z,47.15
2022-08-03T04:24:26.972Z,47.14
2022-08-03T04:26:56.062Z,46.94
2022-08-03T04:29:26.121Z,46.95
2022-08-03T04:31:55.004Z,46.96
2022-08-03T04:34:22.037Z,47.26
2022-08-03T04:36:53.094Z,47.26
2022-08-03T04:39:29.596Z,46.77
2022-08-03T04:42:08.335Z,46.56
2022-08-03T04:44:46.704Z,46.14
2022-08-03T04:47:14.090Z,46.02
2022-08-03T04:49:41.303Z,46.04
2022-08-03T04:52:10.109Z,45.75
2022-08-03T04:54:42.216Z,45.84
2022-08-03T04:57:10.332Z,45.49
2022-08-03T04:59:54.757Z,45.09
2022-08-03T05:02:24.935Z,45.07
2022-08-03T05:04:52.127Z,45.11
2022-08-03T05:07:24.142Z,44.76
2022-08-03T05:10:01.380Z,44.89
2022-08-03T05:12:33.744Z,45.00
2022-08-03T05:15:01.405Z,44.65
2022-08-03T05:17:30.743Z,44.46
2022-08-03T05:19:57.593Z,43.94
2022-08-03T05:22:24.668Z,43.42
2022-08-03T05:24:51.576Z,43.34
2022-08-03T05:27:19.636Z,42.52
2022-08-03T05:29:47.427Z,41.94
2022-08-03T05:32:14.756Z,41.35
2022-08-03T05:34:41.683Z,40.82
2022-08-03T05:37:08.805Z,40.41
2022-08-03T05:39:35.983Z,40.60
2022-08-03T05:42:03.031Z,39.79
2022-08-03T05:44:32.367Z,39.47
2022-08-03T05:46:59.539Z,39.43
2022-08-03T05:49:26.441Z,38.72
2022-08-03T05:52:00.185Z,38.06
2022-08-03T05:54:57.249Z,37.32
2022-08-03T05:57:26.064Z,36.30
2022-08-03T05:59:54.675Z,35.24
2022-08-03T06:02:26.425Z,33.15
2022-08-03T06:04:55.665Z,29.75
2022-08-03T06:07:22.916Z,27.76
2022-08-03T06:10:34.197Z,28.08
2022-08-03T06:12:37.459Z,26.18
2022-08-03T06:18:08.519Z,27.35
2022-08-03T06:20:35.481Z,27.62
2022-08-03T06:23:02.948Z,28.34
2022-08-03T06:25:30.969Z,29.41
2022-08-03T06:27:57.856Z,29.90
2022-08-03T06:30:25.014Z,30.21
2022-08-03T06:32:52.569Z,31.31
2022-08-03T06:35:20.174Z,31.46
2022-08-03T06:37:49.619Z,31.20
2022-08-03T06:40:24.456Z,31.32
2022-08-03T06:42:51.703Z,30.37
2022-08-03T06:45:18.702Z,29.65
2022-08-03T06:47:45.649Z,29.27
2022-08-03T06:50:16.950Z,29.19
2022-08-03T06:52:45.454Z,29.21
2022-08-03T06:55:12.513Z,30.04
2022-08-03T06:57:39.291Z,30.81
2022-08-03T07:00:11.838Z,29.72
2022-08-03T07:02:40.151Z,25.80
2022-08-03T07:05:08.823Z,24.95
2022-08-03T07:07:35.888Z,25.93
2022-08-03T07:10:03.038Z,27.07
2022-08-03T07:12:31.981Z,26.66
2022-08-03T07:15:02.702Z,25.24
2022-08-03T07:17:36.957Z,24.20
2022-08-03T07:20:06.795Z,22.13
2022-08-03T07:22:34.420Z,19.63
2022-08-03T07:25:01.394Z,18.24
2022-08-03T07:27:30.602Z,15.94
2022-08-03T07:29:58.797Z,14.51
2022-08-03T07:32:26.110Z,15.30
2022-08-03T07:34:58.318Z,16.30
2022-08-03T07:37:27.277Z,18.32
2022-08-03T07:39:54.110Z,19.36
2022-08-03T07:42:20.984Z,19.72
2022-08-03T07:44:47.883Z,18.70
2022-08-03T07:47:35.053Z,17.37
2022-08-03T07:50:02.621Z,17.22
2022-08-03T07:52:48.141Z,13.22
2022-08-03T07:55:19.078Z,10.89
2022-08-03T07:57:46.001Z,10.38
2022-08-03T08:00:17.224Z,9.58
2022-08-03T08:02:45.028Z,9.52
2022-08-03T08:05:17.233Z,9.46
2022-08-03T08:07:44.099Z,9.04
2022-08-03T08:10:17.707Z,7.79
2022-08-03T08:12:44.619Z,7.29
2022-08-03T08:15:11.483Z,7.22
2022-08-03T08:17:50.266Z,6.77
2022-08-03T08:20:30.797Z,6.75
2022-08-03T08:23:27.585Z,8.22
2022-08-03T08:25:54.074Z,9.71
2022-08-03T08:28:32.542Z,7.64
2022-08-03T08:31:01.398Z,8.31
2022-08-03T08:33:37.653Z,10.04
2022-08-03T08:36:15.938Z,11.77
2022-08-03T08:38:44.665Z,12.93
2022-08-03T08:41:13.282Z,11.92
2022-08-03T08:43:40.684Z,13.72
2022-08-03T08:46:08.623Z,12.93
2022-08-03T08:48:40.517Z,10.11
2022-08-03T08:51:08.625Z,8.41
2022-08-03T08:53:38.431Z,7.65
2022-08-03T08:56:08.125Z,6.45
2022-08-03T08:58:40.903Z,5.82
2022-08-03T09:01:08.547Z,5.88
2022-08-03T09:03:35.509Z,5.13
2022-08-03T09:06:03.446Z,4.68
2022-08-03T09:08:32.645Z,4.87
2022-08-03T09:11:00.187Z,5.06
2022-08-03T09:13:27.423Z,4.76
2022-08-03T09:16:14.308Z,4.52
2022-08-03T09:18:46.596Z,4.13
2022-08-03T09:21:31.160Z,3.81
2022-08-03T09:24:02.921Z,4.03
2022-08-03T09:26:33.951Z,4.07
2022-08-03T09:29:14.333Z,4.63
2022-08-03T09:31:46.872Z,4.68
2022-08-03T09:34:17.767Z,4.29
2022-08-03T09:36:46.877Z,3.87
2022-08-03T09:39:19.761Z,3.38
2022-08-03T09:42:14.774Z,4.68
2022-08-03T09:44:45.138Z,7.11
2022-08-03T09:47:16.702Z,10.02
2022-08-03T09:50:06.710Z,12.02
2022-08-03T09:52:49.141Z,13.98
2022-08-03T09:55:23.655Z,15.27
2022-08-03T09:58:09.642Z,17.37
2022-08-03T10:00:54.230Z,18.48
2022-08-03T10:03:24.380Z,19.43
2022-08-03T10:05:53.017Z,19.73
2022-08-03T10:08:23.782Z,20.15
2022-08-03T10:10:55.681Z,20.31
2022-08-03T10:13:23.559Z,20.96
2022-08-03T10:16:24.078Z,21.82
2022-08-03T10:18:40.187Z,21.93
2022-08-03T10:21:10.711Z,22.28
2022-08-03T10:23:38.896Z,22.49
2022-08-03T10:26:07.987Z,22.58
2022-08-03T10:28:41.569Z,22.88
2022-08-03T10:31:13.197Z,23.36
2022-08-03T10:33:51.532Z,24.00
2022-08-03T10:36:24.764Z,24.22
2022-08-03T10:38:53.443Z,24.10
2022-08-03T10:41:21.274Z,24.23
2022-08-03T10:43:59.247Z,24.66
2022-08-03T10:46:27.661Z,24.81
2022-08-03T10:48:56.772Z,24.59
2022-08-03T10:51:24.197Z,24.88
2022-08-03T10:53:55.383Z,24.83
2022-08-03T10:56:53.465Z,24.72
2022-08-03T10:59:59.508Z,24.96
2022-08-03T11:03:01.504Z,24.93
2022-08-03T11:05:30.417Z,24.88
2022-08-03T11:08:32.324Z,24.85
2022-08-03T11:11:28.580Z,24.62
2022-08-03T11:14:03.310Z,24.83
2022-08-03T11:16:36.560Z,25.55
2022-08-03T11:19:06.186Z,25.34
2022-08-03T11:21:51.151Z,25.56
2022-08-03T11:24:36.873Z,25.76
2022-08-03T11:27:20.030Z,25.47
2022-08-03T11:30:02.212Z,26.13
2022-08-03T11:32:38.334Z,26.25
2022-08-03T11:35:16.454Z,26.37
2022-08-03T11:38:03.123Z,26.07
2022-08-03T11:40:49.264Z,26.02
2022-08-03T11:43:22.178Z,26.31
2022-08-03T11:46:01.442Z,26.16
2022-08-03T11:48:33.999Z,26.57
2022-08-03T11:51:02.022Z,26.59
2022-08-03T11:53:31.358Z,26.52
2022-08-03T11:56:05.299Z,26.42
2022-08-03T11:59:16.469Z,26.50
2022-08-03T12:01:35.511Z,26.22
2022-08-03T12:04:06.252Z,26.54
2022-08-03T12:06:55.180Z,26.37
2022-08-03T12:09:22.130Z,26.52
2022-08-03T12:12:00.757Z,26.37
2022-08-03T12:14:48.576Z,26.28
2022-08-03T12:17:18.716Z,26.62
2022-08-03T12:19:45.825Z,26.92
2022-08-03T12:22:17.163Z,26.62
2022-08-03T12:24:46.934Z,26.91
2022-08-03T12:27:25.306Z,27.21
2022-08-03T12:29:59.018Z,27.50
2022-08-03T12:32:27.372Z,26.98
2022-08-03T12:34:55.673Z,27.37
2022-08-03T12:37:23.820Z,27.12
2022-08-03T12:40:02.489Z,27.57
2022-08-03T12:42:35.640Z,27.21
2022-08-03T12:45:23.601Z,27.31
2022-08-03T12:47:59.580Z,27.45
2022-08-03T12:50:31.333Z,27.22
2022-08-03T12:53:00.199Z,27.21
2022-08-03T12:55:57.802Z,27.22
2022-08-03T12:58:35.652Z,27.33
2022-08-03T13:01:09.758Z,27.73
2022-08-03T13:03:45.731Z,27.33
2022-08-03T13:06:22.818Z,27.93
2022-08-03T13:08:51.331Z,27.84
2022-08-03T13:11:19.270Z,28.14
2022-08-03T13:13:46.487Z,27.87
2022-08-03T13:16:18.753Z,27.79
2022-08-03T13:18:47.231Z,27.89
2022-08-03T13:21:16.453Z,27.64
2022-08-03T13:23:43.990Z,27.90
2022-08-03T13:26:12.050Z,28.36
2022-08-03T13:28:40.045Z,28.16
2022-08-03T13:31:07.347Z,28.38
2022-08-03T13:33:35.642Z,28.01
2022-08-03T13:36:02.505Z,28.36
2022-08-03T13:38:29.414Z,28.14
2022-08-03T13:40:56.432Z,28.24
2022-08-03T13:43:23.479Z,28.41
2022-08-03T13:45:54.842Z,28.45
2022-08-03T13:48:35.874Z,28.74
2022-08-03T13:51:22.244Z,28.38
2022-08-03T13:53:52.344Z,28.44
2022-08-03T13:56:19.215Z,28.91
2022-08-03T13:58:46.115Z,28.81
2022-08-03T14:01:13.116Z,28.56
2022-08-03T14:03:39.985Z,28.11
2022-08-03T14:06:07.021Z,28.23
2022-08-03T14:08:33.917Z,28.48
2022-08-03T14:11:00.847Z,28.56
2022-08-03T14:13:27.692Z,28.33
2022-08-03T14:15:55.704Z,28.02
2022-08-03T14:18:27.682Z,27.88
2022-08-03T14:21:02.003Z,27.97
2022-08-03T14:23:32.586Z,28.36
2022-08-03T14:25:59.849Z,28.23
2022-08-03T14:28:26.781Z,28.12
2022-08-03T14:30:56.018Z,28.63
2022-08-03T14:33:23.513Z,28.18
2022-08-03T14:35:51.855Z,28.19
2022-08-03T14:38:19.106Z,28.26
2022-08-03T14:40:46.506Z,28.46
2022-08-03T14:43:13.906Z,28.27
2022-08-03T14:45:43.140Z,28.77
2022-08-03T14:50:31.467Z,28.78
2022-08-03T14:50:57.289Z,29.03
2022-08-03T14:53:24.509Z,29.01
2022-08-03T14:55:53.051Z,29.26
2022-08-03T14:58:22.049Z,29.53
2022-08-03T15:00:50.440Z,29.39
2022-08-03T15:03:20.553Z,29.43
2022-08-03T15:05:47.636Z,29.50
2022-08-03T15:08:14.419Z,29.49
2022-08-03T15:10:44.758Z,29.43
2022-08-03T15:13:15.802Z,29.63
2022-08-03T15:15:42.650Z,29.74
2022-08-03T15:18:09.696Z,29.77
2022-08-03T15:20:45.473Z,29.99
2022-08-03T15:23:15.038Z,29.94
2022-08-03T15:26:29.355Z,29.81
2022-08-03T15:28:30.015Z,30.04
2022-08-03T15:30:57.066Z,30.52
2022-08-03T15:33:23.881Z,30.32
2022-08-03T15:35:50.767Z,30.28
2022-08-03T15:38:17.835Z,30.19
2022-08-03T15:40:44.903Z,30.46
2022-08-03T15:43:11.838Z,30.75
2022-08-03T15:45:38.741Z,30.28
2022-08-03T15:48:07.150Z,30.32
2022-08-03T15:50:34.257Z,30.48
2022-08-03T15:53:01.256Z,30.72
2022-08-03T15:55:28.373Z,30.94
2022-08-03T15:59:10.092Z,30.61
2022-08-03T16:00:43.201Z,30.54
2022-08-03T16:03:10.626Z,30.77
2022-08-03T16:05:39.824Z,31.21
2022-08-03T16:08:11.668Z,31.31
2022-08-03T16:10:41.203Z,31.29
2022-08-03T16:13:16.287Z,31.41
2022-08-03T16:15:43.242Z,31.33
2022-08-03T16:18:10.033Z,31.42
2022-08-03T16:20:36.905Z,31.36
2022-08-03T16:23:10.361Z,31.75
2022-08-03T16:25:41.278Z,31.59
2022-08-03T16:28:14.843Z,31.83
2022-08-03T16:30:45.236Z,31.97
2022-08-03T16:33:16.753Z,31.88
2022-08-03T16:35:46.199Z,32.12
2022-08-03T16:38:18.361Z,32.00
2022-08-03T16:40:51.990Z,32.28
2022-08-03T16:43:21.220Z,32.13
2022-08-03T16:45:48.870Z,32.28
2022-08-03T16:48:16.834Z,32.42
2022-08-03T16:50:44.715Z,32.33
2022-08-03T16:53:16.363Z,32.76
2022-08-03T16:55:52.054Z,33.00
2022-08-03T16:58:41.254Z,32.77
2022-08-03T17:01:22.038Z,32.87
2022-08-03T17:04:01.252Z,33.04
2022-08-03T17:06:34.235Z,33.52
2022-08-03T17:09:08.433Z,33.82
2022-08-03T17:11:37.795Z,33.97
2022-08-03T17:14:09.522Z,34.18
2022-08-03T17:16:38.354Z,34.30
2022-08-03T17:19:07.498Z,33.98
2022-08-03T17:21:39.508Z,34.31
2022-08-03T17:24:19.727Z,34.02
2022-08-03T17:26:49.872Z,34.18
2022-08-03T17:29:25.256Z,34.43
2022-08-03T17:31:56.664Z,34.28
2022-08-03T17:34:26.299Z,33.93
2022-08-03T17:37:27.283Z,34.15
2022-08-03T17:39:59.854Z,34.14
2022-08-03T17:42:38.813Z,34.36
2022-08-03T17:45:07.281Z,34.63
2022-08-03T17:47:42.133Z,35.22
2022-08-03T17:53:23.609Z,35.14
2022-08-03T17:56:38.762Z,35.24
2022-08-03T17:59:08.595Z,35.86
2022-08-03T18:02:25.167Z,36.16
2022-08-03T18:05:15.987Z,36.81
2022-08-03T18:07:59.290Z,36.84
2022-08-03T18:10:34.315Z,36.64
2022-08-03T18:13:10.551Z,36.95
2022-08-03T18:15:45.181Z,36.88
2022-08-03T18:18:16.050Z,37.16
2022-08-03T18:20:57.028Z,36.94
2022-08-03T18:23:36.686Z,36.47
2022-08-03T18:26:07.539Z,36.55
2022-08-03T18:28:39.164Z,36.38
2022-08-03T18:31:07.569Z,36.21
2022-08-03T18:34:32.145Z,36.25
2022-08-03T18:36:29.583Z,35.87
2022-08-03T18:38:59.353Z,35.83
2022-08-03T18:41:32.172Z,35.83
2022-08-03T18:44:37.762Z,36.18
2022-08-03T18:47:16.502Z,36.00
2022-08-03T18:50:08.959Z,35.70
2022-08-03T18:53:05.116Z,35.69
2022-08-03T18:56:04.185Z,35.78
2022-08-03T18:59:02.530Z,35.86
2022-08-03T19:01:59.952Z,36.33
2022-08-03T19:07:27.538Z,36.19
2022-08-03T19:10:09.467Z,36.13
2022-08-03T19:12:45.341Z,36.26
2022-08-03T19:15:15.809Z,36.57
2022-08-03T19:17:53.252Z,36.40
2022-08-03T19:20:31.276Z,36.34
2022-08-03T19:22:59.682Z,36.46
2022-08-03T19:25:35.159Z,36.79
2022-08-03T19:28:06.191Z,37.01
2022-08-03T19:30:40.272Z,36.83
2022-08-03T19:33:13.153Z,37.43
2022-08-03T19:35:55.066Z,37.15
2022-08-03T19:38:29.145Z,37.23
2022-08-03T19:41:01.003Z,37.40
2022-08-03T19:43:49.444Z,37.36
2022-08-03T19:46:30.315Z,37.73
2022-08-03T19:49:14.795Z,37.59
2022-08-03T19:52:01.771Z,37.81
2022-08-03T19:54:52.804Z,37.76
2022-08-03T19:57:24.150Z,38.08
2022-08-03T19:59:53.383Z,37.87
2022-08-03T20:02:26.908Z,37.99
2022-08-03T20:04:56.240Z,38.11
2022-08-03T20:07:24.311Z,38.57
2022-08-03T20:09:56.155Z,38.54
2022-08-03T20:12:29.014Z,38.58
2022-08-03T20:14:59.967Z,38.54
2022-08-03T20:17:54.778Z,38.38
2022-08-03T20:20:20.051Z,38.55
2022-08-03T20:22:53.310Z,38.42
2022-08-03T20:25:38.310Z,38.41
2022-08-03T20:28:22.905Z,38.29
2022-08-03T20:30:55.183Z,38.49
2022-08-03T20:33:27.829Z,38.78
2022-08-03T20:36:10.400Z,38.85
2022-08-03T20:38:43.579Z,38.64
2022-08-03T20:41:10.807Z,38.96
2022-08-03T20:43:37.741Z,38.82
2022-08-03T20:46:31.114Z,38.99
2022-08-03T20:48:52.840Z,39.20
2022-08-03T20:51:49.836Z,39.30
2022-08-03T20:54:20.882Z,39.44
2022-08-03T20:56:54.731Z,39.26
2022-08-03T20:59:24.292Z,39.30
2022-08-03T21:01:51.099Z,39.61
2022-08-03T21:07:16.297Z,39.75
2022-08-03T21:09:57.115Z,39.97
2022-08-03T21:12:39.829Z,40.13
2022-08-03T21:13:01.260Z,36.16
2022-08-03T21:13:05.401Z,35.06
2022-08-03T21:13:07.969Z,39.38
2022-08-03T21:15:09.666Z,39.97
2022-08-03T21:17:58.942Z,40.03
2022-08-03T21:20:30.841Z,40.25
2022-08-03T21:22:59.428Z,40.27
2022-08-03T21:25:32.310Z,40.14
2022-08-03T21:28:00.517Z,40.31
2022-08-03T21:30:29.911Z,40.47
2022-08-03T21:32:58.461Z,40.43
2022-08-03T21:35:25.881Z,40.54
2022-08-03T21:38:12.452Z,40.58
2022-08-03T21:40:40.993Z,40.51
2022-08-03T21:43:08.538Z,40.50
2022-08-03T21:45:47.519Z,40.47
2022-08-03T21:48:15.665Z,40.50
2022-08-03T21:50:44.003Z,40.47
2022-08-03T21:53:11.925Z,40.30
2022-08-03T21:55:40.233Z,40.10
2022-08-03T21:58:08.033Z,40.32
2022-08-03T22:00:35.202Z,40.14
2022-08-03T22:03:15.159Z,40.07
2022-08-03T22:05:44.325Z,39.84
2022-08-03T22:08:14.294Z,39.83
2022-08-03T22:10:44.578Z,39.81
2022-08-03T22:13:19.547Z,39.67
2022-08-03T22:16:05.823Z,39.80
2022-08-03T22:18:35.997Z,39.65
2022-08-03T22:21:04.173Z,39.55
2022-08-03T22:23:31.827Z,39.45
2022-08-03T22:26:03.530Z,39.54
2022-08-03T22:28:31.061Z,39.70
2022-08-03T22:31:00.494Z,39.77
2022-08-03T22:33:48.577Z,39.97
2022-08-03T22:36:18.971Z,40.31
2022-08-03T22:38:50.827Z,40.64
2022-08-03T22:41:18.923Z,41.05
2022-08-03T22:43:45.981Z,41.26
2022-08-03T22:46:18.688Z,41.65
2022-08-03T22:48:47.225Z,41.68
2022-08-03T22:51:15.809Z,41.83
2022-08-03T22:53:47.311Z,41.94
2022-08-03T22:56:14.734Z,42.03
2022-08-03T22:58:41.563Z,42.39
2022-08-03T23:01:11.949Z,42.50
2022-08-03T23:04:00.661Z,42.81
2022-08-03T23:06:35.661Z,43.15
2022-08-03T23:09:13.604Z,43.57
2022-08-03T23:11:45.189Z,43.72
2022-08-03T23:14:15.451Z,43.93
2022-08-03T23:16:43.164Z,44.21
2022-08-03T23:19:16.667Z,44.38
2022-08-03T23:22:00.259Z,44.63
2022-08-03T23:24:30.432Z,44.89
2022-08-03T23:26:59.238Z,45.10
2022-08-03T23:29:29.513Z,45.22
2022-08-03T23:31:57.915Z,45.32
2022-08-03T23:34:43.746Z,45.69
2022-08-03T23:37:14.068Z,45.70
2022-08-03T23:39:44.855Z,45.88
2022-08-03T23:42:15.184Z,46.10
2022-08-03T23:44:43.880Z,46.19
2022-08-03T23:47:14.483Z,46.27
2022-08-03T23:49:41.361Z,46.51
2022-08-03T23:52:45.490Z,46.57
2022-08-03T23:55:21.130Z,46.66
2022-08-03T23:58:32.304Z,46.66
